Terminal Aerodrome Forecast
Issued by NWS Wilmington, NC

Home | Current Version | Previous Version | Text Only | Print | Product List | Glossary On
Versions: 1 2 3 4 5 6 7 8 9 10 11 12 13 14 15 16
000
FTUS42 KILM 182320
TAFILM
TAF
KILM 182320Z 1900/1924 20008KT P6SM FEW035
     FM190300 21007KT P6SM SCT250
     FM191200 24006KT P6SM OVC050
     FM191500 24007KT P6SM VCTS OVC025CB
     FM191800 22008KT P6SM BKN140=

USA.gov is the U.S. government's official web portal to all federal, state and local government web resources and services.